Terminal Aerodrome Forecast
Issued by NWS Paducah, KY

Home | Current Version | Previous Version | Text Only | Print | Product List | Glossary On
Versions: 1 2 3 4 5 6 7 8 9 10 11 12 13 14 15 16 17 18
000
FTUS43 KPAH 300520
TAFEVV
TAF
KEVV 300520Z 3006/0106 35002KT P6SM VCSH SCT025 BKN045
      TEMPO 3006/3007 BKN080
     FM301000 32002KT 5SM -SHRA BR BKN013 OVC030
      TEMPO 3012/3013 OVC009
     FM301600 34004KT P6SM BKN025
     FM302100 17013KT P6SM BKN080
      TEMPO 0102/0106 5SM -SHRA BR OVC025=

USA.gov is the U.S. government's official web portal to all federal, state and local government web resources and services.